首页
METAR-TAF:

METAR-TAF

机场 :

卡利亚里, 意大利

纬度: 39-15N, 经度: 009-04E, 海拔: 4米

当前天气观测

该预报发布于27分钟前的15:20 UTC
风速4节,风向西转西北,在西转西南西北之间变化
温度 16°C
湿度 72%
气压 1022 hPa
能见度10公里或以上
1500米以下无云,无积雨云

METAR: LIEE 271520Z 29004KT 250V320 CAVOK 16/11 Q1022

时间: 16:47 (15:47 UTC)

预报

该预报发布于4小时和47分钟前的11:00 UTC
预报有效从27日的 12点(UTC)到 28日的 12点(UTC)
风速10节,风向南转南东
能見度: 8000
少量云层高于2000英尺
成为
从 27日的 18点(UTC)到 27日的 20点(UTC)
风速5节,风向多变
短暂存在
从 27日的 20点(UTC)到 28日的 08点(UTC)
能見度: 2000
多云层高于500英尺
轻雾

TAF: LIEE 271100Z 2712/2812 16010KT 8000 FEW020 BECMG 2718/2720 VRB05KT TEMPO 2720/2808 2000 BR BKN005

超过4000个机场的气象观测和天气预报(METAR&TAF报告)。

可查询的气象台以黄色和红色小点在地图上表示。

将鼠标移到小点上方,可查看气象台名称。

然后点击查看天气观测和预报。

如需切换地图:点击带黑十字的绿色按钮放大地图;点击带横线的绿色按钮缩小地图;或者点击绿色箭头查看邻近地区的地图。


METAR-TAF: